Time;durP1;ratioP1;P1;durP2;ratioP2;P2;SDS_P1;SDS_P2;PMS_P1;PMS_P2;Temp;Humidity;BMP_temperature;BMP_pressure;BME280_temperature;BME280_humidity;BME280_pressure;Samples;Min_cycle;Max_cycle;Signal;HPM_P1;HPM_P2
2023/03/01 00:01:26;;;;;;;20.02;12.18;;;0.60;99.90;;;;;;5049393;28;20546;-55
2023/03/01 00:03:53;;;;;;;18.75;10.88;;;0.60;99.90;;;;;;5046740;28;20026;-50
2023/03/01 00:06:20;;;;;;;19.45;10.88;;;0.60;99.90;;;;;;5055892;28;20116;-54
2023/03/01 00:08:46;;;;;;;20.65;13.13;;;0.50;99.90;;;;;;5074763;28;20024;-55
2023/03/01 00:11:22;;;;;;;16.45;12.07;;;0.50;99.90;;;;;;5060185;28;20041;-58
2023/03/01 00:13:50;;;;;;;23.73;13.00;;;0.50;99.90;;;;;;5040183;28;20022;-52
2023/03/01 00:16:18;;;;;;;19.10;12.73;;;0.50;99.90;;;;;;5053583;28;20048;-53
2023/03/01 00:18:44;;;;;;;18.67;11.65;;;0.50;99.90;;;;;;5053725;28;20021;-51
2023/03/01 00:21:10;;;;;;;19.00;12.40;;;0.50;99.90;;;;;;5053804;28;20017;-56
2023/03/01 00:23:36;;;;;;;16.00;11.43;;;0.50;99.90;;;;;;5043846;28;20023;-57
2023/03/01 00:26:06;;;;;;;19.20;12.40;;;0.50;99.90;;;;;;5034608;28;20067;-54
2023/03/01 00:28:31;;;;;;;18.35;11.55;;;0.50;99.90;;;;;;5052009;28;20037;-57
2023/03/01 00:31:05;;;;;;;20.23;11.63;;;0.50;99.90;;;;;;5039242;28;20060;-57
2023/03/01 00:33:30;;;;;;;18.98;12.55;;;0.50;99.90;;;;;;5036549;28;20021;-58
2023/03/01 00:35:58;;;;;;;18.67;12.13;;;0.40;99.90;;;;;;5053771;28;20023;-57
2023/03/01 00:38:23;;;;;;;18.83;12.15;;;0.40;99.90;;;;;;5053656;28;20021;-56
2023/03/01 00:40:49;;;;;;;19.73;11.35;;;0.40;99.90;;;;;;5053516;28;20021;-54
2023/03/01 00:43:14;;;;;;;19.88;12.13;;;0.40;99.90;;;;;;5053181;28;20139;-56
2023/03/01 00:45:40;;;;;;;18.52;11.70;;;0.40;99.90;;;;;;5052121;28;20082;-58
2023/03/01 00:48:05;;;;;;;19.13;12.88;;;0.50;99.90;;;;;;5053053;28;20052;-51
2023/03/01 00:50:31;;;;;;;17.42;12.02;;;0.40;99.90;;;;;;5053158;28;20052;-57
2023/03/01 00:52:56;;;;;;;19.67;12.10;;;0.40;99.90;;;;;;5053223;28;20032;-55
2023/03/01 00:55:23;;;;;;;16.15;11.80;;;0.40;99.90;;;;;;5052751;28;20021;-56
2023/03/01 00:57:49;;;;;;;21.27;11.63;;;0.40;99.90;;;;;;5051655;28;20078;-56
2023/03/01 01:00:15;;;;;;;19.52;12.77;;;0.40;99.90;;;;;;5052980;28;20099;-57
2023/03/01 01:02:41;;;;;;;22.38;11.95;;;0.50;99.90;;;;;;5053214;28;20021;-57
2023/03/01 01:05:07;;;;;;;18.90;12.27;;;0.40;99.90;;;;;;5051690;28;20032;-57
2023/03/01 01:07:32;;;;;;;25.10;12.70;;;0.40;99.90;;;;;;5052640;28;20051;-57
2023/03/01 01:09:58;;;;;;;20.15;11.63;;;0.40;99.90;;;;;;5053335;28;20464;-55
2023/03/01 01:12:23;;;;;;;18.25;11.65;;;0.40;99.90;;;;;;5052876;28;20454;-55
2023/03/01 01:14:49;;;;;;;18.02;11.43;;;0.40;99.90;;;;;;5052690;28;20025;-57
2023/03/01 01:17:14;;;;;;;20.65;11.30;;;0.40;99.90;;;;;;5052501;28;20044;-57
2023/03/01 01:19:40;;;;;;;19.08;13.45;;;0.40;99.90;;;;;;5052668;28;20060;-55
2023/03/01 01:22:05;;;;;;;46.70;25.67;;;0.40;99.90;;;;;;5052674;28;20488;-54
2023/03/01 01:24:31;;;;;;;37.55;20.30;;;0.40;99.90;;;;;;5051306;28;20021;-54
2023/03/01 01:26:56;;;;;;;21.35;13.25;;;0.40;99.90;;;;;;5052344;28;20033;-53
2023/03/01 01:29:22;;;;;;;20.02;12.60;;;0.40;99.90;;;;;;5052446;28;20489;-54
2023/03/01 01:31:48;;;;;;;18.88;11.52;;;0.40;99.90;;;;;;5051079;28;20459;-55
2023/03/01 01:34:17;;;;;;;18.02;12.82;;;0.40;99.90;;;;;;5052330;28;20091;-55
2023/03/01 01:36:43;;;;;;;21.20;12.73;;;0.40;99.90;;;;;;5052149;28;20108;-54
2023/03/01 01:39:12;;;;;;;21.92;13.80;;;0.40;99.90;;;;;;5052332;28;20052;-54
2023/03/01 01:41:39;;;;;;;21.23;12.63;;;0.30;99.90;;;;;;5052191;28;20028;-57
2023/03/01 01:44:12;;;;;;;22.48;12.57;;;0.30;99.90;;;;;;5052198;28;20488;-58
2023/03/01 01:46:40;;;;;;;23.25;12.57;;;0.30;99.90;;;;;;5051726;28;20040;-56
2023/03/01 01:49:31;;;;;;;16.83;11.82;;;0.30;99.90;;;;;;5050884;28;20025;-56
2023/03/01 01:52:13;;;;;;;19.30;11.40;;;0.30;99.90;;;;;;5048762;28;20045;-56
2023/03/01 01:54:54;;;;;;;21.60;12.82;;;0.30;99.90;;;;;;5051848;28;20048;-56
2023/03/01 01:57:33;;;;;;;20.77;13.60;;;0.30;99.90;;;;;;5050606;28;20111;-55
2023/03/01 02:00:05;;;;;;;22.58;13.30;;;0.40;99.90;;;;;;5052051;28;20021;-55
2023/03/01 02:02:31;;;;;;;20.15;12.98;;;0.40;99.90;;;;;;5051959;28;20022;-55
2023/03/01 02:05:10;;;;;;;26.30;13.65;;;0.30;99.90;;;;;;5051787;28;20075;-53
2023/03/01 02:07:38;;;;;;;21.15;13.63;;;0.30;99.90;;;;;;5050909;28;20116;-56
2023/03/01 02:10:04;;;;;;;21.15;12.88;;;0.30;99.90;;;;;;5051934;28;20024;-55
2023/03/01 02:12:30;;;;;;;24.33;13.60;;;0.30;99.90;;;;;;5051686;28;20087;-57
2023/03/01 02:14:56;;;;;;;22.70;13.45;;;0.30;99.90;;;;;;5051941;28;20112;-56
2023/03/01 02:17:22;;;;;;;21.27;13.10;;;0.30;99.90;;;;;;5051416;28;20115;-57
2023/03/01 02:20:16;;;;;;;21.60;12.13;;;0.30;99.90;;;;;;5051532;28;20028;-55
2023/03/01 02:22:44;;;;;;;20.02;12.48;;;0.30;99.90;;;;;;5051509;28;20028;-55
2023/03/01 02:25:30;;;;;;;18.60;12.57;;;0.30;99.90;;;;;;5051498;28;20021;-58
2023/03/01 02:28:08;;;;;;;27.40;13.27;;;0.20;99.90;;;;;;5051398;28;20385;-57
2023/03/01 02:30:34;;;;;;;22.95;12.70;;;0.20;99.90;;;;;;5051428;28;20069;-57
2023/03/01 02:33:04;;;;;;;20.98;13.32;;;0.30;99.90;;;;;;5052136;28;20060;-55
2023/03/01 02:35:37;;;;;;;22.58;12.73;;;0.20;99.90;;;;;;5052211;28;20021;-55
2023/03/01 02:38:05;;;;;;;21.65;13.10;;;0.20;99.90;;;;;;5051443;28;20013;-56
2023/03/01 02:40:33;;;;;;;27.38;13.85;;;0.30;99.90;;;;;;5050382;28;20017;-57
2023/03/01 02:42:59;;;;;;;23.45;13.55;;;0.30;99.90;;;;;;5051480;28;20029;-58
2023/03/01 02:45:26;;;;;;;21.55;14.20;;;0.30;99.90;;;;;;5051176;28;20029;-56
2023/03/01 02:47:57;;;;;;;24.67;15.77;;;0.30;99.90;;;;;;5051045;28;20033;-57
2023/03/01 02:50:30;;;;;;;27.73;13.30;;;0.30;99.90;;;;;;5049855;28;20029;-56
2023/03/01 02:53:17;;;;;;;19.48;12.85;;;0.30;99.90;;;;;;5051240;28;20095;-56
2023/03/01 02:55:43;;;;;;;23.15;14.30;;;0.30;99.90;;;;;;5051194;28;20021;-55
2023/03/01 02:58:09;;;;;;;21.77;13.38;;;0.30;99.90;;;;;;5050995;28;20412;-56
2023/03/01 03:00:39;;;;;;;21.92;13.38;;;0.30;99.90;;;;;;5051368;28;20071;-57
2023/03/01 03:03:06;;;;;;;22.73;13.48;;;0.20;99.90;;;;;;5051120;28;20124;-53
2023/03/01 03:05:32;;;;;;;22.83;14.02;;;0.20;99.90;;;;;;5051295;28;20033;-56
2023/03/01 03:08:01;;;;;;;19.98;13.07;;;0.30;99.90;;;;;;5050992;28;20055;-53
2023/03/01 03:10:33;;;;;;;23.13;13.60;;;0.30;99.90;;;;;;5051193;28;20453;-56
2023/03/01 03:13:02;;;;;;;24.23;13.90;;;0.30;99.90;;;;;;5050864;28;20086;-57
2023/03/01 03:15:28;;;;;;;19.48;13.55;;;0.30;99.90;;;;;;5050835;28;20492;-55
2023/03/01 03:17:55;;;;;;;20.70;13.27;;;0.20;99.90;;;;;;5050899;28;20025;-56
2023/03/01 03:20:24;;;;;;;20.88;13.63;;;0.20;99.90;;;;;;5054832;28;20032;-55
2023/03/01 03:22:52;;;;;;;25.45;14.07;;;0.20;99.90;;;;;;5054709;28;20036;-56
2023/03/01 03:25:19;;;;;;;19.98;13.25;;;0.20;99.90;;;;;;5054645;28;20086;-55
2023/03/01 03:27:46;;;;;;;22.42;14.38;;;0.30;99.90;;;;;;5074367;28;20043;-57
2023/03/01 03:30:19;;;;;;;20.33;14.00;;;0.30;99.90;;;;;;5073854;28;20454;-53
2023/03/01 03:32:51;;;;;;;22.38;13.65;;;0.20;99.90;;;;;;5074372;28;20135;-55
2023/03/01 03:35:22;;;;;;;25.50;13.55;;;0.20;99.90;;;;;;5074394;28;20031;-54
2023/03/01 03:38:02;;;;;;;23.80;14.25;;;0.30;99.90;;;;;;5074501;28;20397;-56
2023/03/01 03:40:37;;;;;;;20.20;13.57;;;0.30;99.90;;;;;;5074517;28;20032;-53
2023/03/01 03:43:05;;;;;;;18.17;12.75;;;0.20;99.90;;;;;;5074331;28;20063;-56
2023/03/01 03:45:33;;;;;;;22.23;14.50;;;0.30;99.90;;;;;;5074320;28;20028;-51
2023/03/01 03:47:59;;;;;;;21.77;13.60;;;0.20;99.90;;;;;;5074010;28;20021;-52
2023/03/01 03:50:24;;;;;;;18.70;13.98;;;0.30;99.90;;;;;;5074464;28;20028;-51
2023/03/01 03:52:50;;;;;;;23.77;15.07;;;0.30;99.90;;;;;;5074338;28;20021;-53
2023/03/01 03:55:19;;;;;;;20.40;13.75;;;0.30;99.90;;;;;;5074118;28;20142;-53
2023/03/01 03:57:51;;;;;;;20.45;13.50;;;0.30;99.90;;;;;;5073786;28;20408;-52
2023/03/01 04:00:18;;;;;;;21.20;13.32;;;0.30;99.90;;;;;;5073029;28;20482;-53
2023/03/01 04:02:44;;;;;;;27.42;14.80;;;0.30;99.90;;;;;;5074019;28;20029;-55
2023/03/01 04:05:12;;;;;;;26.75;13.27;;;0.30;99.90;;;;;;5074013;28;20024;-55
2023/03/01 04:07:38;;;;;;;21.73;12.98;;;0.20;99.90;;;;;;5074016;28;20486;-53
2023/03/01 04:10:06;;;;;;;21.45;13.27;;;0.30;99.90;;;;;;5073874;28;20040;-55
2023/03/01 04:12:33;;;;;;;27.73;15.35;;;0.30;99.90;;;;;;5073753;28;20017;-53
2023/03/01 04:15:00;;;;;;;19.73;13.20;;;0.30;99.90;;;;;;5073735;28;20025;-55
2023/03/01 04:17:25;;;;;;;24.65;13.68;;;0.20;99.90;;;;;;5073668;28;20036;-53
2023/03/01 04:19:51;;;;;;;21.35;13.60;;;0.30;99.90;;;;;;5073757;28;20074;-52
2023/03/01 04:22:18;;;;;;;20.25;13.93;;;0.30;99.90;;;;;;5073668;28;20472;-58
2023/03/01 04:24:44;;;;;;;23.30;14.73;;;0.30;99.90;;;;;;5073673;28;20021;-55
2023/03/01 04:27:10;;;;;;;23.17;13.80;;;0.30;99.90;;;;;;5073390;28;20427;-57
2023/03/01 04:29:36;;;;;;;23.67;14.23;;;0.30;99.90;;;;;;5073475;28;20086;-56
2023/03/01 04:32:02;;;;;;;23.33;13.85;;;0.30;99.90;;;;;;5072819;28;20032;-55
2023/03/01 04:34:28;;;;;;;27.90;14.05;;;0.20;99.90;;;;;;5073003;28;20028;-55
2023/03/01 04:36:54;;;;;;;23.50;14.27;;;0.20;99.90;;;;;;5073233;28;20032;-56
2023/03/01 04:39:19;;;;;;;23.27;14.40;;;0.20;99.90;;;;;;5073386;28;20029;-56
2023/03/01 04:41:45;;;;;;;22.23;14.05;;;0.20;99.90;;;;;;5073181;28;20025;-56
2023/03/01 04:44:11;;;;;;;17.55;13.40;;;0.20;99.90;;;;;;5073343;28;20024;-54
2023/03/01 04:46:36;;;;;;;24.55;14.23;;;0.20;99.90;;;;;;5073004;28;20032;-57
2023/03/01 04:49:02;;;;;;;23.42;14.60;;;0.20;99.90;;;;;;5073279;28;20146;-59
2023/03/01 04:51:28;;;;;;;25.27;15.07;;;0.20;99.90;;;;;;5072903;28;20073;-57
2023/03/01 04:53:54;;;;;;;20.73;14.15;;;0.20;99.90;;;;;;5073356;28;20029;-56
2023/03/01 04:56:20;;;;;;;22.63;14.75;;;0.20;99.90;;;;;;5071592;28;20055;-56
2023/03/01 04:58:46;;;;;;;21.55;14.15;;;0.20;99.90;;;;;;5071670;28;20040;-53
2023/03/01 05:01:17;;;;;;;25.70;15.20;;;0.30;99.90;;;;;;5073193;28;20035;-52
2023/03/01 05:03:44;;;;;;;27.40;14.88;;;0.20;99.90;;;;;;5073059;28;20021;-55
2023/03/01 05:06:11;;;;;;;22.48;14.52;;;0.30;99.90;;;;;;5072554;28;20369;-57
2023/03/01 05:08:37;;;;;;;23.92;15.70;;;0.30;99.90;;;;;;5072530;28;20434;-55
2023/03/01 05:11:03;;;;;;;22.80;13.75;;;0.40;99.90;;;;;;5072718;28;20395;-56
2023/03/01 05:13:29;;;;;;;35.58;15.70;;;0.30;99.90;;;;;;5071063;28;20020;-55
2023/03/01 05:16:00;;;;;;;22.25;14.60;;;0.30;99.90;;;;;;5072731;28;20483;-58
2023/03/01 05:18:27;;;;;;;27.77;16.05;;;0.30;99.90;;;;;;5071392;28;20021;-56
2023/03/01 05:20:57;;;;;;;24.20;13.70;;;0.30;99.90;;;;;;5072596;28;20017;-53
2023/03/01 05:23:24;;;;;;;21.15;15.48;;;0.20;99.90;;;;;;5072937;28;20024;-55
2023/03/01 05:25:52;;;;;;;24.08;15.43;;;0.20;99.90;;;;;;5072883;28;20116;-55
2023/03/01 05:28:19;;;;;;;24.23;14.98;;;0.30;99.90;;;;;;5072680;28;20161;-55
2023/03/01 05:30:45;;;;;;;26.17;14.95;;;0.20;99.90;;;;;;5072394;28;20067;-53
2023/03/01 05:33:13;;;;;;;23.85;15.57;;;0.20;99.90;;;;;;5072282;28;20028;-56
2023/03/01 05:35:40;;;;;;;28.58;15.10;;;0.10;99.90;;;;;;5071946;28;20047;-56
2023/03/01 05:38:06;;;;;;;25.17;14.65;;;0.30;99.90;;;;;;5071925;28;20017;-54
2023/03/01 05:40:33;;;;;;;23.20;15.05;;;0.30;99.90;;;;;;5071025;28;20399;-56
2023/03/01 05:42:59;;;;;;;30.73;18.73;;;0.30;99.90;;;;;;5069861;28;20535;-55
2023/03/01 05:45:27;;;;;;;22.23;14.80;;;0.30;99.90;;;;;;5071973;28;20112;-56
2023/03/01 05:47:53;;;;;;;31.27;15.70;;;0.30;99.90;;;;;;5071725;28;20484;-56
2023/03/01 05:50:22;;;;;;;22.55;14.82;;;0.30;99.90;;;;;;5072048;28;20028;-56
2023/03/01 05:52:50;;;;;;;26.10;15.50;;;0.30;99.90;;;;;;5071760;28;20104;-50
2023/03/01 05:55:20;;;;;;;26.15;14.98;;;0.30;99.90;;;;;;5070744;28;20053;-54
2023/03/01 05:57:47;;;;;;;21.23;14.90;;;0.30;99.90;;;;;;5071673;28;20027;-54
2023/03/01 06:00:15;;;;;;;22.88;14.50;;;0.20;99.90;;;;;;5070512;28;20404;-52
2023/03/01 06:02:41;;;;;;;24.02;16.50;;;0.20;99.90;;;;;;5071503;28;20456;-56
2023/03/01 06:05:09;;;;;;;30.42;16.20;;;0.20;99.90;;;;;;5071528;28;20103;-54
2023/03/01 06:07:34;;;;;;;29.00;16.20;;;0.30;99.90;;;;;;5071911;28;20078;-55
2023/03/01 06:10:00;;;;;;;24.92;16.27;;;0.30;99.90;;;;;;5071688;28;20024;-54
2023/03/01 06:12:26;;;;;;;24.23;15.07;;;0.30;99.90;;;;;;5071791;28;20021;-53
2023/03/01 06:14:51;;;;;;;25.90;15.45;;;0.30;99.90;;;;;;5071334;28;20025;-55
2023/03/01 06:17:17;;;;;;;23.33;15.73;;;0.40;99.90;;;;;;5071133;28;20067;-56
2023/03/01 06:19:42;;;;;;;26.65;15.82;;;0.40;99.90;;;;;;5071677;28;20476;-54
2023/03/01 06:22:08;;;;;;;25.00;15.75;;;0.40;99.90;;;;;;5070153;28;20488;-56
2023/03/01 06:24:33;;;;;;;30.55;15.65;;;0.40;99.90;;;;;;5071364;28;20207;-55
2023/03/01 06:26:59;;;;;;;26.30;16.40;;;0.50;99.90;;;;;;5071184;28;20029;-58
2023/03/01 06:29:25;;;;;;;24.48;15.07;;;0.50;99.90;;;;;;5071400;28;20439;-58
2023/03/01 06:31:50;;;;;;;26.10;15.60;;;0.60;99.90;;;;;;5071058;28;20042;-54
2023/03/01 06:34:16;;;;;;;24.52;15.85;;;0.80;99.90;;;;;;5071295;28;20028;-56
2023/03/01 06:36:41;;;;;;;24.17;14.70;;;1.10;99.90;;;;;;5070828;28;20086;-58
2023/03/01 06:39:07;;;;;;;24.58;14.77;;;1.40;99.90;;;;;;5071061;28;20024;-56
2023/03/01 06:41:33;;;;;;;23.38;15.35;;;1.60;99.90;;;;;;5071292;28;20067;-57
2023/03/01 06:43:59;;;;;;;24.77;14.57;;;1.90;99.90;;;;;;5071308;28;20031;-56
2023/03/01 06:46:25;;;;;;;23.50;14.15;;;2.10;99.90;;;;;;5071164;28;20082;-56
2023/03/01 06:48:50;;;;;;;28.25;15.48;;;2.00;99.90;;;;;;5071015;28;20438;-56
2023/03/01 06:51:16;;;;;;;23.60;15.00;;;1.80;99.90;;;;;;5071181;28;20480;-57
2023/03/01 06:53:41;;;;;;;25.48;14.40;;;1.70;99.90;;;;;;5072177;28;20038;-57
2023/03/01 06:56:07;;;;;;;26.35;16.05;;;1.50;99.90;;;;;;5073832;28;20088;-55
2023/03/01 06:58:33;;;;;;;24.70;15.48;;;1.40;99.90;;;;;;5075095;28;20025;-57
2023/03/01 07:00:58;;;;;;;23.98;14.10;;;1.30;99.90;;;;;;5074774;28;20021;-55
2023/03/01 07:03:24;;;;;;;22.17;15.40;;;1.30;99.90;;;;;;5074910;28;20089;-57
2023/03/01 07:05:52;;;;;;;29.27;15.52;;;1.40;99.90;;;;;;5075106;28;20021;-56
2023/03/01 07:08:18;;;;;;;25.23;15.77;;;1.30;99.90;;;;;;5074808;28;20029;-54
2023/03/01 07:10:43;;;;;;;24.95;15.57;;;1.30;99.90;;;;;;5075101;28;20418;-56
2023/03/01 07:13:09;;;;;;;24.02;16.42;;;1.10;99.90;;;;;;5073510;28;20025;-57
2023/03/01 07:15:34;;;;;;;25.23;16.40;;;1.10;99.90;;;;;;5074913;28;20033;-57
2023/03/01 07:18:00;;;;;;;22.33;15.07;;;1.00;99.90;;;;;;5074663;28;20074;-53
2023/03/01 07:20:25;;;;;;;24.70;16.48;;;1.10;99.90;;;;;;5074900;28;20023;-58
2023/03/01 07:22:52;;;;;;;22.52;15.18;;;1.10;99.90;;;;;;5074787;28;20056;-57
2023/03/01 07:25:18;;;;;;;23.35;15.57;;;0.90;99.90;;;;;;5074737;28;20024;-56
2023/03/01 07:27:43;;;;;;;22.30;15.85;;;1.00;99.90;;;;;;5074437;28;20028;-57
2023/03/01 07:30:09;;;;;;;25.40;14.88;;;1.00;99.90;;;;;;5074400;28;20506;-55
2023/03/01 07:32:35;;;;;;;23.80;16.02;;;0.90;99.90;;;;;;5073216;28;20025;-56
2023/03/01 07:35:01;;;;;;;25.73;16.73;;;1.00;99.90;;;;;;5074305;28;20096;-57
2023/03/01 07:37:26;;;;;;;27.73;14.70;;;1.10;99.90;;;;;;5074240;28;20025;-57
2023/03/01 07:39:52;;;;;;;24.48;14.90;;;1.20;99.90;;;;;;5073186;28;20476;-58
2023/03/01 07:42:17;;;;;;;24.63;15.60;;;1.20;99.90;;;;;;5074337;28;20219;-57
2023/03/01 07:44:43;;;;;;;26.17;15.50;;;1.20;99.90;;;;;;5074551;28;20479;-59
2023/03/01 07:47:08;;;;;;;24.05;14.73;;;1.20;99.90;;;;;;5074080;28;20025;-58
2023/03/01 07:49:34;;;;;;;24.85;16.13;;;1.30;99.90;;;;;;5074352;28;20040;-57
2023/03/01 07:51:59;;;;;;;23.23;15.00;;;1.30;99.90;;;;;;5072890;28;20021;-57
2023/03/01 07:54:26;;;;;;;29.17;17.40;;;1.30;99.90;;;;;;5072858;28;20036;-56
2023/03/01 07:56:51;;;;;;;25.55;16.23;;;1.20;99.90;;;;;;5073969;28;20013;-54
2023/03/01 07:59:17;;;;;;;24.60;15.70;;;1.20;99.90;;;;;;5074128;28;20129;-56
2023/03/01 08:01:42;;;;;;;26.92;15.20;;;1.10;99.90;;;;;;5074151;28;20020;-57
2023/03/01 08:04:08;;;;;;;27.27;15.60;;;1.10;99.90;;;;;;5072834;28;20023;-54
2023/03/01 08:06:35;;;;;;;23.88;15.07;;;1.10;99.90;;;;;;5072312;28;20024;-56
2023/03/01 08:09:01;;;;;;;26.60;16.17;;;1.20;99.90;;;;;;5072599;28;20031;-52
2023/03/01 08:11:30;;;;;;;29.63;15.18;;;1.30;99.90;;;;;;5072746;28;20591;-55
2023/03/01 08:13:56;;;;;;;22.60;15.68;;;1.30;99.90;;;;;;5073759;28;20039;-56
2023/03/01 08:16:21;;;;;;;26.27;15.15;;;1.50;99.90;;;;;;5073489;28;20020;-55
2023/03/01 08:18:47;;;;;;;26.17;15.52;;;1.50;99.90;;;;;;5073703;28;20487;-50
2023/03/01 08:21:14;;;;;;;23.27;15.32;;;1.40;99.90;;;;;;5072543;28;20032;-56
2023/03/01 08:23:40;;;;;;;23.02;14.68;;;1.50;99.90;;;;;;5072428;28;20035;-53
2023/03/01 08:26:15;;;;;;;28.25;16.25;;;1.50;99.90;;;;;;5073370;28;20037;-54
2023/03/01 08:28:41;;;;;;;29.42;15.57;;;1.60;99.90;;;;;;5073522;28;20021;-52
2023/03/01 08:31:22;;;;;;;22.13;14.25;;;1.70;99.90;;;;;;5072107;28;20411;-52
2023/03/01 08:33:54;;;;;;;28.73;15.23;;;1.70;99.90;;;;;;5073086;28;20067;-54
2023/03/01 08:36:27;;;;;;;22.27;14.82;;;1.80;99.90;;;;;;5073348;28;20484;-55
2023/03/01 08:38:54;;;;;;;25.58;14.38;;;1.80;99.90;;;;;;5073359;28;20017;-57
2023/03/01 08:41:19;;;;;;;24.15;16.08;;;1.80;99.90;;;;;;5073338;28;20108;-54
2023/03/01 08:43:45;;;;;;;29.42;14.40;;;1.90;99.90;;;;;;5073221;28;20142;-53
2023/03/01 08:46:11;;;;;;;22.73;14.02;;;1.90;99.90;;;;;;5073077;28;20108;-49
2023/03/01 08:48:37;;;;;;;21.10;14.15;;;2.00;99.90;;;;;;5073009;28;20024;-54
2023/03/01 08:51:08;;;;;;;23.85;14.73;;;2.10;99.90;;;;;;5071633;28;20033;-58
2023/03/01 08:53:34;;;;;;;26.38;15.45;;;2.20;99.90;;;;;;5073107;28;20039;-58
2023/03/01 08:56:02;;;;;;;27.33;15.18;;;2.30;99.90;;;;;;5071731;28;20480;-52
2023/03/01 08:58:28;;;;;;;24.70;15.50;;;2.40;99.90;;;;;;5073305;28;20027;-55
2023/03/01 09:00:53;;;;;;;29.65;15.07;;;2.50;99.90;;;;;;5071676;28;20024;-54
2023/03/01 09:03:19;;;;;;;20.95;13.88;;;2.50;99.90;;;;;;5073090;28;20115;-52
2023/03/01 09:05:45;;;;;;;21.83;13.38;;;2.40;99.90;;;;;;5073035;28;20032;-57
2023/03/01 09:08:11;;;;;;;22.60;14.93;;;2.50;99.90;;;;;;5072926;28;20056;-57
2023/03/01 09:10:39;;;;;;;23.48;13.88;;;2.60;99.90;;;;;;5073052;28;20060;-56
2023/03/01 09:13:05;;;;;;;21.60;14.68;;;2.60;99.90;;;;;;5072871;28;20039;-57
2023/03/01 09:15:30;;;;;;;30.33;14.27;;;2.70;99.90;;;;;;5072610;28;20465;-54
2023/03/01 09:17:56;;;;;;;23.77;13.45;;;2.70;99.90;;;;;;5072388;28;20054;-56
2023/03/01 09:20:21;;;;;;;25.92;14.88;;;2.70;99.90;;;;;;5072939;28;20024;-57
2023/03/01 09:22:47;;;;;;;22.67;15.77;;;2.80;99.90;;;;;;5072669;28;20052;-55
2023/03/01 09:25:12;;;;;;;25.25;14.60;;;2.80;99.90;;;;;;5072593;28;20032;-55
2023/03/01 09:27:38;;;;;;;31.23;15.90;;;2.90;99.90;;;;;;5072546;28;20025;-56
2023/03/01 09:30:04;;;;;;;23.27;14.43;;;3.10;99.90;;;;;;5072228;28;20070;-55
2023/03/01 09:32:31;;;;;;;28.45;16.27;;;3.20;99.90;;;;;;5072429;28;20028;-54
2023/03/01 09:35:05;;;;;;;20.77;13.70;;;4.80;99.90;;;;;;5072303;28;20021;-57
2023/03/01 09:37:32;;;;;;;22.37;13.03;;;;;;;;;;5061970;28;20108;-54
2023/03/01 09:39:58;;;;;;;19.20;13.55;;;;;;;;;;5046275;28;20275;-54
2023/03/01 09:42:24;;;;;;;21.15;13.30;;;6.70;97.10;;;;;;5034644;28;20028;-55
2023/03/01 09:45:19;;;;;;;23.85;14.65;;;7.30;96.20;;;;;;5033223;28;20393;-50
2023/03/01 09:47:45;;;;;;;20.90;13.68;;;7.50;94.80;;;;;;5044546;28;20020;-50
2023/03/01 09:50:20;;;;;;;19.48;13.10;;;7.60;94.70;;;;;;5052237;28;20067;-53
2023/03/01 09:52:48;;;;;;;22.97;13.77;;;8.00;97.60;;;;;;5031868;28;20025;-52
2023/03/01 09:55:17;;;;;;;20.08;13.43;;;7.90;93.40;;;;;;5035173;28;20030;-51
2023/03/01 09:58:15;;;;;;;18.27;13.88;;;7.70;93.80;;;;;;5043647;28;20151;-56
2023/03/01 10:00:47;;;;;;;19.52;13.23;;;8.00;93.20;;;;;;5051938;28;20027;-51
2023/03/01 10:03:26;;;;;;;20.08;14.52;;;7.70;93.70;;;;;;5051950;28;20043;-55
2023/03/01 10:06:17;;;;;;;23.67;14.98;;;7.60;94.00;;;;;;5051933;28;20082;-55
2023/03/01 10:08:58;;;;;;;18.90;14.07;;;7.90;93.20;;;;;;5035595;28;20574;-55
2023/03/01 10:11:41;;;;;;;24.10;14.85;;;8.10;93.10;;;;;;5031311;28;20033;-55
2023/03/01 10:14:31;;;;;;;20.85;13.52;;;7.10;94.20;;;;;;5038539;28;20033;-56
2023/03/01 10:17:02;;;;;;;22.02;15.05;;;6.90;94.70;;;;;;5047065;28;20021;-57
2023/03/01 10:19:38;;;;;;;20.38;14.20;;;6.50;95.20;;;;;;5051466;28;20020;-57
2023/03/01 10:22:13;;;;;;;;;;;6.60;95.50;;;;;;5052002;28;20514;-57
2023/03/01 10:24:38;;;;;;;25.25;13.90;;;6.50;95.50;;;;;;5051526;28;20295;-57
2023/03/01 10:27:40;;;;;;;25.83;14.77;;;6.50;95.60;;;;;;5051607;28;20033;-57
2023/03/01 10:30:30;;;;;;;24.42;15.45;;;6.40;95.90;;;;;;5051430;28;20104;-53
2023/03/01 10:32:57;;;;;;;20.98;14.25;;;6.40;95.50;;;;;;5051388;28;20388;-56
2023/03/01 10:35:25;;;;;;;24.73;15.23;;;6.30;95.90;;;;;;5051520;28;20377;-55
2023/03/01 10:38:02;;;;;;;23.48;14.95;;;6.10;96.10;;;;;;5051397;28;20464;-57
2023/03/01 10:40:28;;;;;;;27.70;15.15;;;6.30;96.30;;;;;;5051620;28;20112;-50
2023/03/01 10:42:58;;;;;;;20.13;14.13;;;6.40;96.20;;;;;;5050234;28;20120;-55
2023/03/01 10:45:34;;;;;;;24.27;15.57;;;6.70;96.40;;;;;;5051097;28;20052;-55
2023/03/01 10:48:10;;;;;;;22.95;14.85;;;6.60;95.70;;;;;;5051059;28;20025;-55
2023/03/01 10:50:37;;;;;;;19.80;14.45;;;6.40;96.20;;;;;;5049915;28;20492;-55
2023/03/01 10:53:04;;;;;;;21.85;14.85;;;6.20;96.30;;;;;;5051289;28;20023;-50
2023/03/01 10:55:40;;;;;;;23.73;15.52;;;6.00;96.40;;;;;;5051211;28;20029;-56
2023/03/01 10:58:14;;;;;;;27.50;16.65;;;6.10;96.90;;;;;;5051002;28;20108;-57
2023/03/01 11:00:53;;;;;;;24.08;14.93;;;6.10;96.80;;;;;;5051358;28;20103;-57
2023/03/01 11:03:38;;;;;;;22.67;14.40;;;6.30;97.00;;;;;;5042668;28;20025;-51
2023/03/01 11:06:11;;;;;;;25.67;16.10;;;6.30;96.70;;;;;;5030797;28;20050;-52
2023/03/01 11:08:43;;;;;;;22.38;14.80;;;6.30;96.70;;;;;;5043733;28;20029;-56
2023/03/01 11:11:24;;;;;;;23.73;15.18;;;6.20;96.90;;;;;;5051214;28;20095;-55
2023/03/01 11:14:16;;;;;;;24.17;14.93;;;6.30;96.80;;;;;;5050917;28;20029;-55
2023/03/01 11:16:45;;;;;;;23.95;15.18;;;6.00;97.20;;;;;;5039809;28;20052;-52
2023/03/01 11:19:10;;;;;;;26.52;16.67;;;6.00;97.30;;;;;;5038858;28;20018;-55
2023/03/01 11:21:46;;;;;;;23.40;14.57;;;5.80;97.20;;;;;;5031094;28;20029;-54
2023/03/01 11:24:14;;;;;;;24.83;15.20;;;5.80;97.80;;;;;;5031086;28;20032;-54
2023/03/01 11:26:43;;;;;;;24.27;15.80;;;5.80;98.00;;;;;;5030842;28;20036;-55
2023/03/01 11:29:38;;;;;;;24.42;15.27;;;5.90;97.80;;;;;;5031023;28;20022;-55
2023/03/01 11:32:08;;;;;;;26.17;14.87;;;5.90;97.50;;;;;;5031228;28;20029;-56
2023/03/01 11:35:09;;;;;;;24.08;14.70;;;6.00;97.20;;;;;;5035871;28;20311;-52
2023/03/01 11:37:58;;;;;;;20.55;14.45;;;5.90;97.30;;;;;;5050695;28;20507;-53
2023/03/01 11:40:29;;;;;;;24.90;14.77;;;5.90;97.30;;;;;;5053029;28;20029;-56
2023/03/01 11:43:30;;;;;;;25.88;15.55;;;6.00;97.60;;;;;;5054664;28;20025;-55
2023/03/01 11:46:14;;;;;;;23.08;15.02;;;6.20;97.10;;;;;;5031413;28;20080;-52
2023/03/01 11:49:06;;;;;;;21.80;14.13;;;6.20;97.30;;;;;;5054285;28;20047;-55
2023/03/01 11:51:59;;;;;;;21.88;14.30;;;6.10;96.90;;;;;;5030145;28;20033;-53
2023/03/01 11:54:38;;;;;;;20.90;14.05;;;6.00;97.00;;;;;;5054356;28;20163;-51
2023/03/01 11:57:19;;;;;;;24.83;14.90;;;6.00;97.30;;;;;;5054331;28;20029;-54
2023/03/01 12:00:10;;;;;;;20.00;14.05;;;6.00;97.00;;;;;;5043543;28;20374;-54
2023/03/01 12:02:44;;;;;;;20.35;13.82;;;6.00;97.10;;;;;;5034254;28;20033;-58
2023/03/01 12:05:28;;;;;;;27.33;13.68;;;6.20;97.20;;;;;;5035490;28;20538;-53
2023/03/01 12:08:09;;;;;;;24.23;15.38;;;6.30;97.00;;;;;;5055094;28;20524;-54
2023/03/01 12:11:02;;;;;;;20.80;13.52;;;6.40;96.50;;;;;;5053139;28;20404;-52
2023/03/01 12:13:56;;;;;;;29.10;14.43;;;6.30;96.20;;;;;;5053963;28;20074;-54
2023/03/01 12:16:50;;;;;;;19.92;13.77;;;6.30;96.60;;;;;;5061955;28;20492;-57
2023/03/01 12:19:32;;;;;;;22.17;14.85;;;6.30;96.60;;;;;;5047338;28;20400;-53
2023/03/01 12:22:16;;;;;;;19.42;12.98;;;6.40;96.90;;;;;;5034404;28;20105;-51
2023/03/01 12:24:51;;;;;;;17.90;12.88;;;6.40;96.40;;;;;;5046809;28;20052;-49
2023/03/01 12:27:44;;;;;;;21.85;13.98;;;6.40;95.90;;;;;;5052757;28;20036;-49
2023/03/01 12:30:46;;;;;;;20.98;13.63;;;6.40;96.10;;;;;;5033015;28;20029;-51
2023/03/01 12:33:15;;;;;;;18.15;12.18;;;6.40;96.10;;;;;;5038817;28;20108;-52
2023/03/01 12:35:54;;;;;;;16.52;11.77;;;6.60;95.70;;;;;;5049585;28;20024;-55
2023/03/01 12:38:36;;;;;;;18.25;11.50;;;6.80;95.40;;;;;;5034787;28;20116;-53
2023/03/01 12:41:28;;;;;;;23.65;12.15;;;6.80;94.80;;;;;;5053832;28;20024;-56
2023/03/01 12:44:22;;;;;;;19.13;11.55;;;6.80;94.70;;;;;;5052388;28;20029;-53
2023/03/01 12:47:03;;;;;;;21.38;12.18;;;6.90;94.10;;;;;;5053912;28;20415;-55
2023/03/01 12:49:39;;;;;;;18.00;10.85;;;7.00;94.40;;;;;;5046102;28;20036;-52
2023/03/01 12:52:16;;;;;;;16.33;10.80;;;7.20;93.90;;;;;;5053050;28;20387;-57
2023/03/01 12:54:42;;;;;;;16.02;11.25;;;7.30;93.80;;;;;;5038260;28;20108;-55